Flight Track Log - Related Links

Times and Time Zones

All times are in EDT time to prevent confusion due to time zone crossing. See the DAL362 flight status page for this flight to view local times or setup timezone preferences in your user account.

Time Position Orientation Groundspeed Altitude Reporting Facility
EDT Latitude Longitude Course Direction KTS MPH feet Rate Location/Type
Thu 04:13:00 PM 18.6252 -77.9380 349° North  Level FlightAware Approximate
Thu 04:14:00 PM 18.7467 -77.9626 349° North  Level FlightAware Approximate
Thu 04:15:00 PM 18.8682 -77.9873 349° North  Level FlightAware Approximate
Thu 04:16:00 PM 18.9897 -78.0120 349° North  Level FlightAware Approximate
Thu 04:17:00 PM 19.1112 -78.0367 349° North  Level FlightAware Approximate
Thu 04:18:00 PM 19.2327 -78.0615 349° North  Level FlightAware Approximate
Thu 04:19:00 PM 19.3542 -78.0863 349° North  Level FlightAware Approximate
Thu 04:20:00 PM 19.4757 -78.1112 349° North  Level FlightAware Approximate
Thu 04:21:00 PM 19.5972 -78.1361 349° North  Level FlightAware Approximate
Thu 04:22:00 PM 19.7187 -78.1610 349° North  Level FlightAware Approximate
Thu 04:23:00 PM 19.8402 -78.1860 349° North  Level FlightAware Approximate
Thu 04:24:00 PM 19.9616 -78.2110 349° North  Level FlightAware Approximate
Thu 04:25:00 PM 20.0831 -78.2360 349° North  Level FlightAware Approximate
Thu 04:26:00 PM 20.2046 -78.2611 349° North  Level FlightAware Approximate
Thu 04:27:00 PM 20.3260 -78.2862 349° North  Level FlightAware Approximate
Thu 04:28:00 PM 20.4475 -78.3114 349° North  Level FlightAware Approximate
Thu 04:29:00 PM 20.5689 -78.3366 349° North  Level FlightAware Approximate
Thu 04:30:00 PM 20.6842 -78.3617 348° North  Level FlightAware Approximate
Thu 04:31:00 PM 20.8052 -78.3896 348° North  Level FlightAware Approximate
Thu 04:32:00 PM 20.9265 -78.4156 349° North  Level FlightAware Approximate
Thu 04:33:00 PM 21.0480 -78.4404 349° North  Level FlightAware Approximate
Thu 04:34:00 PM 21.1696 -78.4652 349° North  Level FlightAware Approximate
Thu 04:35:00 PM 21.2911 -78.4901 349° North  Level FlightAware Approximate
Thu 04:36:00 PM 21.4126 -78.5151 349° North  Level FlightAware Approximate
Thu 04:37:00 PM 21.5341 -78.5400 349° North  Level FlightAware Approximate
Thu 04:38:00 PM 21.6557 -78.5650 349° North  Level FlightAware Approximate
Thu 04:39:00 PM 21.7772 -78.5901 349° North  Level FlightAware Approximate
Thu 04:40:00 PM 21.8987 -78.6152 349° North  Level FlightAware Approximate
Thu 04:41:00 PM 22.0202 -78.6403 349° North  Level FlightAware Approximate
Thu 04:42:00 PM 22.1417 -78.6655 349° North  Level FlightAware Approximate
Thu 04:43:00 PM 22.2632 -78.6907 349° North  Level FlightAware Approximate
Thu 04:44:00 PM 22.3847 -78.7160 349° North  Level FlightAware Approximate
Thu 04:45:00 PM 22.5062 -78.7413 349° North  Level FlightAware Approximate
Thu 04:46:00 PM 22.6277 -78.7667 349° North  Level FlightAware Approximate
Thu 04:47:00 PM 22.7492 -78.7921 349° North  Level FlightAware Approximate
Thu 04:48:00 PM 22.8707 -78.8176 349° North  Level FlightAware Approximate
Thu 04:49:00 PM 22.9920 -78.8441 349° North  Level FlightAware Approximate
Thu 04:50:00 PM 23.1133 -78.8707 349° North  Level FlightAware Approximate
Thu 04:51:00 PM 23.2345 -78.8973 349° North  Level FlightAware Approximate
Thu 04:52:00 PM 23.3558 -78.9240 349° North  Level FlightAware Approximate
Thu 04:53:00 PM 23.4771 -78.9508 349° North  Level FlightAware Approximate
Thu 04:54:00 PM 23.5984 -78.9776 349° North  Level FlightAware Approximate
Thu 04:55:00 PM 23.7205 -79.0046 349° North  Level FlightAware Approximate
Thu 04:56:00 PM 23.8426 -79.0317 349° North  Level FlightAware Approximate
Thu 04:57:00 PM 23.9648 -79.0588 349° North  Level FlightAware Approximate
Thu 04:57:10 PM 23.2847 -78.9172 331° Northwest 449 517 34,000  Level Miami Center
Thu 04:58:00 PM 24.0787 -79.1113 331° Northwest  Level FlightAware Approximate
Thu 04:58:10 PM 23.4014 -78.9350 352° North 437 503 34,000  Level Miami Center
Thu 04:59:00 PM 24.1873 -79.1784 331° Northwest  Level FlightAware Approximate
Thu 04:59:10 PM 23.5222 -78.9617 349° North 444 511 34,000  Level Miami Center
Thu 05:00:00 PM 24.2958 -79.2456 331° Northwest  Level FlightAware Approximate
Thu 05:00:10 PM 23.6494 -78.9889 349° North 448 516 34,000  Level Miami Center
Thu 05:01:00 PM 24.4043 -79.3129 331° Northwest  Level FlightAware Approximate
Thu 05:01:10 PM 23.7764 -79.0206 347° North 453 521 34,000  Level Miami Center
Thu 05:02:00 PM 24.5128 -79.3803 331° Northwest  Level FlightAware Approximate
Thu 05:02:10 PM 23.8972 -79.0475 348° North 446 513 34,000  Level Miami Center
Thu 05:03:10 PM 24.0178 -79.0836 345° North 446 513 34,000  Level Miami Center
Thu 05:04:10 PM 24.1233 -79.1447 332° Northwest 445 512 34,000  Level Miami Center
Thu 05:05:10 PM 24.2417 -79.2061 335° Northwest 452 520 34,000  Level Miami Center
Thu 05:06:10 PM 24.3600 -79.2450 343° North 452 520 34,000  Level Miami Center
Thu 05:07:10 PM 24.4786 -79.2858 343° North 447 514 34,000  Level Miami Center
Thu 05:08:10 PM 24.5989 -79.3272 343° North 447 514 34,000  Level Miami Center
Thu 05:09:10 PM 24.7153 -79.3706 341° North 442 509 34,000  Level Miami Center
Thu 05:10:10 PM 24.8381 -79.3936 350° North 442 509 34,000  Level Miami Center
Thu 05:11:10 PM 24.9656 -79.4008 357° North 447 514 34,000  Level Miami Center
Thu 05:12:10 PM 25.0928 -79.4081 357° North 447 514 34,000  Level Miami Center
Thu 05:13:10 PM 25.2203 -79.4061 North 447 514 34,000  Level Miami Center
Thu 05:14:10 PM 25.3500 -79.3997 North 457 526 34,000  Level Miami Center
Thu 05:15:10 PM 25.4753 -79.3956 North 457 526 34,000  Level Miami Center
Thu 05:16:10 PM 25.6050 -79.3889 North 462 532 34,000  Level Miami Center
Thu 05:17:10 PM 25.7306 -79.3800 North 457 526 34,000  Level Miami Center
Thu 05:18:10 PM 25.8539 -79.3850 358° North 451 519 34,000  Level Miami Center
Thu 05:19:10 PM 25.9528 -79.4564 327° Northwest 418 481 34,000  Level Miami Center
Thu 05:20:10 PM 26.0133 -79.5708 301° West 407 468 34,000  Level Miami Center
Thu 05:21:10 PM 26.0717 -79.6925 298° West 420 483 34,000  Level Miami Center
Thu 05:22:10 PM 26.1236 -79.8094 296° West 420 483 34,000  Level Miami Center
Thu 05:23:10 PM 26.1775 -79.9289 297° West 426 490 34,000  Level Miami Center
Thu 05:24:10 PM 26.2356 -80.0461 299° West 431 496 34,000  Level Miami Center
Thu 05:25:10 PM 26.3106 -80.1594 306° West 444 511 34,000  Level Miami Center
Thu 05:26:10 PM 26.3831 -80.2681 307° West 449 517 34,000  Level Miami Center
Thu 05:27:10 PM 26.4644 -80.3633 314° West 435 501 34,000 150 Level Miami Center
Thu 05:28:10 PM 26.5822 -80.4108 340° North 425 489 34,300 400 Climbing Miami Center
Thu 05:29:10 PM 26.7006 -80.4492 344° North 442 509 34,800 350 Climbing Miami Center
Thu 05:30:10 PM 26.8039 -80.4850 343° North 442 509 35,000 100 Climbing Miami Center
Thu 05:31:10 PM 26.9242 -80.5261 343° North 437 503 35,000  Level Miami Center
Thu 05:32:10 PM 27.0464 -80.5650 344° North 442 509 35,000  Level Miami Center
Thu 05:33:10 PM 27.1683 -80.6061 343° North 447 514 35,000  Level Miami Center
Thu 05:34:10 PM 27.2906 -80.6450 344° North 452 520 35,000  Level Miami Center
Thu 05:35:10 PM 27.4128 -80.6842 344° North 452 520 35,000  Level Miami Center
Thu 05:36:10 PM 27.5347 -80.7233 344° North 452 520 35,000  Level Miami Center
Thu 05:37:10 PM 27.6589 -80.7650 343° North 452 520 35,000  Level Miami Center
Thu 05:38:10 PM 27.7936 -80.8025 346° North 452 520 35,000  Level Miami Center
Thu 05:39:10 PM 27.9178 -80.8422 344° North 452 520 35,000  Level Miami Center
Thu 05:40:10 PM 28.0417 -80.8864 343° North 457 526 35,000  Level Miami Center
Thu 05:41:10 PM 28.1636 -80.9283 343° North 457 526 35,000  Level Miami Center
Thu 05:42:10 PM 28.2897 -80.9708 343° North 457 526 35,000  Level Miami Center
Thu 05:44:34 PM 28.5900 -81.0817 342° North 471 542 35,000  Level Jacksonville Center
Thu 05:45:34 PM 28.7178 -81.1219 345° North 471 542 35,000  Level Jacksonville Center
Thu 05:46:33 PM 28.8436 -81.1528 348° North 471 542 35,000  Level Jacksonville Center
Thu 05:47:33 PM 28.9756 -81.1861 348° North 476 548 35,000  Level Jacksonville Center
Thu 05:48:33 PM 29.1053 -81.2172 348° North 471 542 35,000  Level Jacksonville Center
Thu 05:49:33 PM 29.2350 -81.2458 349° North 472 543 35,000 50 Level Jacksonville Center
Thu 05:50:33 PM 29.3669 -81.2747 349° North 472 543 35,100  Climbing Jacksonville Center
Thu 05:51:34 PM 29.4800 -81.3036 347° North 472 543 35,000 -50 Descending Jacksonville Center
Thu 05:52:34 PM 29.6078 -81.3350 348° North 467 537 35,000  Level Jacksonville Center
Thu 05:53:34 PM 29.7356 -81.3667 348° North 467 537 35,000  Level Jacksonville Center
Thu 05:54:34 PM 29.8611 -81.4053 345° North 467 537 35,000  Level Jacksonville Center
Thu 05:55:34 PM 29.9828 -81.4539 341° North 462 532 35,000  Level Jacksonville Center
Thu 05:56:34 PM 30.1192 -81.5094 341° North 467 537 35,000  Level Jacksonville Center
Thu 05:57:34 PM 30.2428 -81.5581 341° North 467 537 35,000  Level Jacksonville Center
Thu 05:58:33 PM 30.3686 -81.6069 341° North 467 537 35,000  Level Jacksonville Center
Thu 05:59:34 PM 30.4944 -81.6558 341° North 467 537 35,000  Level Jacksonville Center
Thu 06:00:34 PM 30.6181 -81.7075 340° North 467 537 35,000  Level Jacksonville Center
Thu 06:01:34 PM 30.7375 -81.7614 339° North 467 537 35,000  Level Jacksonville Center
Thu 06:02:34 PM 30.8569 -81.8181 338° Northwest 462 532 35,000  Level Jacksonville Center
Thu 06:03:34 PM 30.9683 -81.8797 335° Northwest 451 519 35,000  Level Jacksonville Center
Thu 06:04:33 PM 31.0794 -81.9442 334° Northwest 445 512 35,000  Level Jacksonville Center
Thu 06:05:34 PM 31.1906 -82.0158 331° Northwest 444 511 35,000  Level Jacksonville Center
Thu 06:06:34 PM 31.3036 -82.0781 335° Northwest 449 517 35,000  Level Jacksonville Center
Thu 06:07:34 PM 31.4169 -82.1500 332° Northwest 455 524 35,000  Level Jacksonville Center
Thu 06:08:34 PM 31.5322 -82.2150 334° Northwest 455 524 35,000  Level Jacksonville Center
Thu 06:10:48 PM 31.7917 -82.3675 333° Northwest 469 540 35,000  Level Atlanta Center
Thu 06:11:48 PM 31.9117 -82.4386 333° Northwest 474 545 35,000  Level Atlanta Center
Thu 06:12:48 PM 32.0272 -82.5125 332° Northwest 474 545 35,000 -100 Level Atlanta Center
Thu 06:13:48 PM 32.1267 -82.6139 319° Northwest 474 545 34,800 -1,250 Descending Atlanta Center
Thu 06:14:48 PM 32.2239 -82.7206 317° Northwest 474 545 32,500 -1,950 Descending Atlanta Center
Thu 06:15:48 PM 32.3231 -82.8294 317° Northwest 474 545 30,900 -1,600 Descending Atlanta Center
Thu 06:16:48 PM 32.4219 -82.9339 318° Northwest 480 552 29,300 -2,650 Descending Atlanta Center
Thu 06:17:48 PM 32.5233 -83.0461 317° Northwest 485 558 25,600 -2,950 Descending Atlanta Center
Thu 06:18:48 PM 32.6242 -83.1558 318° Northwest 485 558 23,400 -2,450 Descending Atlanta Center
Thu 06:19:48 PM 32.7167 -83.2561 318° Northwest 479 551 20,700 -2,200 Descending Atlanta Center
Thu 06:20:48 PM 32.8092 -83.3567 318° Northwest 467 537 19,000 -1,700 Descending Atlanta Center
Thu 06:21:48 PM 32.9017 -83.4575 318° Northwest 450 518 17,300 -1,600 Descending Atlanta Center
Thu 06:22:48 PM 32.9875 -83.5533 317° Northwest 439 505 15,800 -1,550 Descending Atlanta Center
Thu 06:23:48 PM 33.0694 -83.6472 316° Northwest 418 481 14,200 -939 Descending Atlanta Center
Thu 06:24:43 PM 33.1333 -83.7167 318° Northwest 353 406 14,000 -104 Descending Atlanta TRACON
Thu 06:25:43 PM 33.2000 -83.7833 320° Northwest 312 359 14,000 -100 Level Atlanta TRACON
Thu 06:26:43 PM 33.2500 -83.8667 306° West 312 359 13,800 -864 Descending Atlanta TRACON
Thu 06:27:48 PM 33.3142 -83.9519 312° West 302 348 12,200 -864 Descending Atlanta Center
Thu 06:28:48 PM 33.3642 -84.0339 306° West 302 348 12,000 -100 Descending Atlanta Center
Thu 06:29:48 PM 33.4122 -84.1061 309° West 302 348 12,000  Level Atlanta Center
Thu 06:30:48 PM 33.4644 -84.1858 308° West 302 348 12,000  Level Atlanta Center
Thu 06:31:48 PM 33.5164 -84.2681 307° West 302 348 12,000 -994 Level Atlanta Center
Thu 06:33:49 PM 33.5500 -84.4667 282° West 306 352 9,000 -1,797 Descending Atlanta TRACON
Thu 06:34:55 PM 33.5500 -84.5667 270° West 273 314 6,400 -2,000 Descending Atlanta TRACON
Thu 06:35:49 PM 33.5500 -84.6333 270° West 242 278 5,000 -1,556 Descending Atlanta TRACON

Login

Don't have an account? Register now (free) for customized features, flight alerts, and more!